sensor_id;sensor_type;location;lat;lon;timestamp;temperature;humidity
35680;DHT22;21803;53.586;10.040;2023-06-22T04:00:32;28.20;44.20
35680;DHT22;21803;53.586;10.040;2023-06-22T04:02:58;28.70;44.50
35680;DHT22;21803;53.586;10.040;2023-06-22T04:05:23;28.20;44.10
35680;DHT22;21803;53.586;10.040;2023-06-22T04:07:49;28.10;44.10
35680;DHT22;21803;53.586;10.040;2023-06-22T04:10:15;28.20;44.10
35680;DHT22;21803;53.586;10.040;2023-06-22T04:12:41;28.20;44.10
35680;DHT22;21803;53.586;10.040;2023-06-22T04:15:06;28.20;44.10
35680;DHT22;21803;53.586;10.040;2023-06-22T04:17:32;28.20;44.10
35680;DHT22;21803;53.586;10.040;2023-06-22T04:19:57;28.30;44.10
35680;DHT22;21803;53.586;10.040;2023-06-22T04:22:23;28.20;44.10
35680;DHT22;21803;53.586;10.040;2023-06-22T04:24:48;28.20;44.00
35680;DHT22;21803;53.586;10.040;2023-06-22T04:27:17;28.20;44.10
35680;DHT22;21803;53.586;10.040;2023-06-22T04:29:43;28.20;44.00
35680;DHT22;21803;53.586;10.040;2023-06-22T04:32:15;28.20;44.00
35680;DHT22;21803;53.586;10.040;2023-06-22T04:34:41;28.20;44.00
35680;DHT22;21803;53.586;10.040;2023-06-22T04:37:06;28.20;44.00
35680;DHT22;21803;53.586;10.040;2023-06-22T04:39:32;28.20;44.00
35680;DHT22;21803;53.586;10.040;2023-06-22T04:41:57;28.30;44.00
35680;DHT22;21803;53.586;10.040;2023-06-22T04:44:26;28.10;43.90
35680;DHT22;21803;53.586;10.040;2023-06-22T04:46:53;28.20;44.00
35680;DHT22;21803;53.586;10.040;2023-06-22T04:49:20;28.30;44.00
35680;DHT22;21803;53.586;10.040;2023-06-22T04:51:48;28.20;43.90
35680;DHT22;21803;53.586;10.040;2023-06-22T04:54:14;28.20;43.90
35680;DHT22;21803;53.586;10.040;2023-06-22T04:56:39;28.30;44.00
35680;DHT22;21803;53.586;10.040;2023-06-22T04:59:06;28.20;44.00
35680;DHT22;21803;53.586;10.040;2023-06-22T05:01:31;28.30;44.00
35680;DHT22;21803;53.586;10.040;2023-06-22T05:03:57;28.20;43.90
35680;DHT22;21803;53.586;10.040;2023-06-22T05:06:26;28.30;44.00
35680;DHT22;21803;53.586;10.040;2023-06-22T05:08:54;28.20;43.90
35680;DHT22;21803;53.586;10.040;2023-06-22T05:11:27;28.30;43.90
35680;DHT22;21803;53.586;10.040;2023-06-22T05:13:53;28.30;43.90
35680;DHT22;21803;53.586;10.040;2023-06-22T05:16:20;28.30;43.90
35680;DHT22;21803;53.586;10.040;2023-06-22T05:18:55;28.30;43.90
35680;DHT22;21803;53.586;10.040;2023-06-22T05:21:26;28.30;43.90
35680;DHT22;21803;53.586;10.040;2023-06-22T05:23:53;28.30;43.90
35680;DHT22;21803;53.586;10.040;2023-06-22T05:26:21;28.30;43.90
35680;DHT22;21803;53.586;10.040;2023-06-22T05:28:47;28.30;43.90
35680;DHT22;21803;53.586;10.040;2023-06-22T05:31:14;28.30;43.90
35680;DHT22;21803;53.586;10.040;2023-06-22T05:33:41;28.30;43.90
35680;DHT22;21803;53.586;10.040;2023-06-22T05:36:07;28.30;43.80
35680;DHT22;21803;53.586;10.040;2023-06-22T05:38:33;28.30;43.80
35680;DHT22;21803;53.586;10.040;2023-06-22T05:40:58;28.40;43.90
35680;DHT22;21803;53.586;10.040;2023-06-22T05:43:24;28.30;43.80
35680;DHT22;21803;53.586;10.040;2023-06-22T05:45:50;28.30;43.80
35680;DHT22;21803;53.586;10.040;2023-06-22T05:48:15;28.30;43.80
35680;DHT22;21803;53.586;10.040;2023-06-22T05:50:41;28.30;43.80
35680;DHT22;21803;53.586;10.040;2023-06-22T05:53:06;28.30;43.80
35680;DHT22;21803;53.586;10.040;2023-06-22T05:55:32;28.30;43.80
35680;DHT22;21803;53.586;10.040;2023-06-22T05:57:58;28.30;43.80
35680;DHT22;21803;53.586;10.040;2023-06-22T06:00:24;28.30;43.80
35680;DHT22;21803;53.586;10.040;2023-06-22T06:02:49;28.40;43.80
35680;DHT22;21803;53.586;10.040;2023-06-22T06:05:15;28.40;43.80
35680;DHT22;21803;53.586;10.040;2023-06-22T06:07:42;28.40;44.40
35680;DHT22;21803;53.586;10.040;2023-06-22T06:10:08;28.40;43.80
35680;DHT22;21803;53.586;10.040;2023-06-22T06:12:35;28.40;43.70
35680;DHT22;21803;53.586;10.040;2023-06-22T06:15:01;28.40;44.30
35680;DHT22;21803;53.586;10.040;2023-06-22T06:17:27;28.40;43.70
35680;DHT22;21803;53.586;10.040;2023-06-22T06:19:52;28.40;43.70
35680;DHT22;21803;53.586;10.040;2023-06-22T06:22:18;28.40;43.70
35680;DHT22;21803;53.586;10.040;2023-06-22T06:24:45;28.40;43.70
35680;DHT22;21803;53.586;10.040;2023-06-22T06:27:11;28.50;43.70
35680;DHT22;21803;53.586;10.040;2023-06-22T06:29:36;28.50;43.70
35680;DHT22;21803;53.586;10.040;2023-06-22T06:32:02;28.50;43.60
35680;DHT22;21803;53.586;10.040;2023-06-22T06:34:27;28.50;43.60
35680;DHT22;21803;53.586;10.040;2023-06-22T06:36:53;28.50;43.50
35680;DHT22;21803;53.586;10.040;2023-06-22T06:39:18;28.50;43.50
35680;DHT22;21803;53.586;10.040;2023-06-22T06:41:44;28.50;43.50
35680;DHT22;21803;53.586;10.040;2023-06-22T06:44:09;28.50;43.50
35680;DHT22;21803;53.586;10.040;2023-06-22T06:46:35;28.50;43.50
35680;DHT22;21803;53.586;10.040;2023-06-22T06:49:00;28.60;43.60
35680;DHT22;21803;53.586;10.040;2023-06-22T06:51:26;28.50;43.50
35680;DHT22;21803;53.586;10.040;2023-06-22T06:53:51;28.50;43.50
35680;DHT22;21803;53.586;10.040;2023-06-22T06:56:17;28.60;43.50
35680;DHT22;21803;53.586;10.040;2023-06-22T06:58:43;28.50;43.50
35680;DHT22;21803;53.586;10.040;2023-06-22T07:01:13;28.60;43.50
35680;DHT22;21803;53.586;10.040;2023-06-22T07:03:38;28.50;43.50
35680;DHT22;21803;53.586;10.040;2023-06-22T07:06:04;28.50;43.50
35680;DHT22;21803;53.586;10.040;2023-06-22T07:08:30;28.50;43.50
35680;DHT22;21803;53.586;10.040;2023-06-22T07:10:55;28.50;43.50
35680;DHT22;21803;53.586;10.040;2023-06-22T07:13:21;28.50;43.50
35680;DHT22;21803;53.586;10.040;2023-06-22T07:15:46;28.50;43.50
35680;DHT22;21803;53.586;10.040;2023-06-22T07:18:12;28.50;43.50
35680;DHT22;21803;53.586;10.040;2023-06-22T07:20:37;28.60;43.60
35680;DHT22;21803;53.586;10.040;2023-06-22T07:23:05;28.50;43.50
35680;DHT22;21803;53.586;10.040;2023-06-22T07:25:30;28.60;43.60
35680;DHT22;21803;53.586;10.040;2023-06-22T07:28:02;28.50;43.50
35680;DHT22;21803;53.586;10.040;2023-06-22T07:30:28;28.50;44.10
35680;DHT22;21803;53.586;10.040;2023-06-22T07:32:54;28.50;43.50
35680;DHT22;21803;53.586;10.040;2023-06-22T07:35:20;28.50;43.50
35680;DHT22;21803;53.586;10.040;2023-06-22T07:37:46;28.50;43.50
35680;DHT22;21803;53.586;10.040;2023-06-22T07:40:12;28.50;43.50
35680;DHT22;21803;53.586;10.040;2023-06-22T07:42:38;28.50;43.50
35680;DHT22;21803;53.586;10.040;2023-06-22T07:45:04;28.50;43.50
35680;DHT22;21803;53.586;10.040;2023-06-22T07:47:30;28.50;43.50
35680;DHT22;21803;53.586;10.040;2023-06-22T07:49:59;28.50;44.10
35680;DHT22;21803;53.586;10.040;2023-06-22T07:52:27;28.50;43.50
35680;DHT22;21803;53.586;10.040;2023-06-22T07:54:52;28.50;43.50
35680;DHT22;21803;53.586;10.040;2023-06-22T07:57:18;28.40;43.50
35680;DHT22;21803;53.586;10.040;2023-06-22T07:59:44;28.50;43.50
35680;DHT22;21803;53.586;10.040;2023-06-22T08:02:10;28.50;43.50
35680;DHT22;21803;53.586;10.040;2023-06-22T08:04:35;28.50;43.50
35680;DHT22;21803;53.586;10.040;2023-06-22T08:07:02;28.50;43.50
35680;DHT22;21803;53.586;10.040;2023-06-22T08:09:29;28.50;43.50
35680;DHT22;21803;53.586;10.040;2023-06-22T08:11:55;28.50;43.50
35680;DHT22;21803;53.586;10.040;2023-06-22T08:14:30;28.50;43.40
35680;DHT22;21803;53.586;10.040;2023-06-22T08:16:56;28.50;43.50
35680;DHT22;21803;53.586;10.040;2023-06-22T08:19:22;28.50;43.40
35680;DHT22;21803;53.586;10.040;2023-06-22T08:21:47;28.50;43.40
35680;DHT22;21803;53.586;10.040;2023-06-22T08:24:12;28.50;43.40
35680;DHT22;21803;53.586;10.040;2023-06-22T08:26:38;28.50;43.50
35680;DHT22;21803;53.586;10.040;2023-06-22T08:29:04;28.50;43.40
35680;DHT22;21803;53.586;10.040;2023-06-22T08:31:30;28.50;43.40
35680;DHT22;21803;53.586;10.040;2023-06-22T08:33:57;28.40;43.30
35680;DHT22;21803;53.586;10.040;2023-06-22T08:36:22;28.50;43.40
35680;DHT22;21803;53.586;10.040;2023-06-22T08:38:48;28.50;43.40
35680;DHT22;21803;53.586;10.040;2023-06-22T08:41:16;28.40;43.30
35680;DHT22;21803;53.586;10.040;2023-06-22T08:43:43;28.40;43.30
35680;DHT22;21803;53.586;10.040;2023-06-22T08:46:09;28.40;43.30
35680;DHT22;21803;53.586;10.040;2023-06-22T08:48:35;28.40;43.30
35680;DHT22;21803;53.586;10.040;2023-06-22T08:51:01;28.40;43.30
35680;DHT22;21803;53.586;10.040;2023-06-22T08:53:27;28.40;43.20
35680;DHT22;21803;53.586;10.040;2023-06-22T08:55:53;28.40;43.20
35680;DHT22;21803;53.586;10.040;2023-06-22T08:58:18;28.40;43.20
35680;DHT22;21803;53.586;10.040;2023-06-22T09:00:45;28.40;43.10
35680;DHT22;21803;53.586;10.040;2023-06-22T09:03:11;28.40;43.10
35680;DHT22;21803;53.586;10.040;2023-06-22T09:05:37;28.40;43.10
35680;DHT22;21803;53.586;10.040;2023-06-22T09:08:03;28.40;43.10
35680;DHT22;21803;53.586;10.040;2023-06-22T09:10:28;28.40;43.00
35680;DHT22;21803;53.586;10.040;2023-06-22T09:12:54;28.40;43.00
35680;DHT22;21803;53.586;10.040;2023-06-22T09:15:20;28.40;43.00
35680;DHT22;21803;53.586;10.040;2023-06-22T09:17:46;28.40;43.00
35680;DHT22;21803;53.586;10.040;2023-06-22T09:20:12;28.40;43.00
35680;DHT22;21803;53.586;10.040;2023-06-22T09:22:37;28.40;43.00
35680;DHT22;21803;53.586;10.040;2023-06-22T09:25:04;28.40;43.00
35680;DHT22;21803;53.586;10.040;2023-06-22T09:27:30;28.40;43.00
35680;DHT22;21803;53.586;10.040;2023-06-22T09:29:55;28.40;43.00
35680;DHT22;21803;53.586;10.040;2023-06-22T09:32:24;28.40;43.00
35680;DHT22;21803;53.586;10.040;2023-06-22T09:34:49;28.40;43.00
35680;DHT22;21803;53.586;10.040;2023-06-22T09:37:15;28.40;43.00
35680;DHT22;21803;53.586;10.040;2023-06-22T09:39:40;28.40;43.00
35680;DHT22;21803;53.586;10.040;2023-06-22T09:42:06;29.70;43.90
35680;DHT22;21803;53.586;10.040;2023-06-22T09:44:32;28.40;43.10
35680;DHT22;21803;53.586;10.040;2023-06-22T09:46:57;28.40;43.10
35680;DHT22;21803;53.586;10.040;2023-06-22T09:49:23;28.40;43.10
35680;DHT22;21803;53.586;10.040;2023-06-22T09:51:48;28.40;43.10
35680;DHT22;21803;53.586;10.040;2023-06-22T09:54:15;28.40;43.10
35680;DHT22;21803;53.586;10.040;2023-06-22T09:56:40;28.40;43.10
35680;DHT22;21803;53.586;10.040;2023-06-22T09:59:06;28.40;43.10
35680;DHT22;21803;53.586;10.040;2023-06-22T10:01:31;28.40;43.80
35680;DHT22;21803;53.586;10.040;2023-06-22T10:03:57;28.40;43.10
35680;DHT22;21803;53.586;10.040;2023-06-22T10:06:23;28.40;43.10
35680;DHT22;21803;53.586;10.040;2023-06-22T10:08:51;28.40;43.20
35680;DHT22;21803;53.586;10.040;2023-06-22T10:11:16;28.40;43.20
35680;DHT22;21803;53.586;10.040;2023-06-22T10:13:42;28.40;43.20
35680;DHT22;21803;53.586;10.040;2023-06-22T10:16:07;28.40;43.20
35680;DHT22;21803;53.586;10.040;2023-06-22T10:18:33;29.80;44.30
35680;DHT22;21803;53.586;10.040;2023-06-22T10:20:58;28.40;43.30
35680;DHT22;21803;53.586;10.040;2023-06-22T10:23:24;28.30;43.20
35680;DHT22;21803;53.586;10.040;2023-06-22T10:25:50;28.40;43.30
35680;DHT22;21803;53.586;10.040;2023-06-22T10:28:15;28.40;43.30
35680;DHT22;21803;53.586;10.040;2023-06-22T10:30:42;28.40;43.30
35680;DHT22;21803;53.586;10.040;2023-06-22T10:33:08;28.40;43.30
35680;DHT22;21803;53.586;10.040;2023-06-22T10:35:34;28.30;43.20
35680;DHT22;21803;53.586;10.040;2023-06-22T10:38:00;28.40;43.30
35680;DHT22;21803;53.586;10.040;2023-06-22T10:40:25;28.40;43.30
35680;DHT22;21803;53.586;10.040;2023-06-22T10:42:51;28.40;43.30
35680;DHT22;21803;53.586;10.040;2023-06-22T10:45:16;28.40;43.40
35680;DHT22;21803;53.586;10.040;2023-06-22T10:47:42;28.40;43.40
35680;DHT22;21803;53.586;10.040;2023-06-22T10:50:08;28.30;43.30
35680;DHT22;21803;53.586;10.040;2023-06-22T10:52:33;28.40;43.40
35680;DHT22;21803;53.586;10.040;2023-06-22T10:54:59;28.30;43.40
35680;DHT22;21803;53.586;10.040;2023-06-22T10:57:25;28.30;43.50
35680;DHT22;21803;53.586;10.040;2023-06-22T10:59:50;28.40;43.50
35680;DHT22;21803;53.586;10.040;2023-06-22T11:02:15;28.40;43.50
35680;DHT22;21803;53.586;10.040;2023-06-22T11:04:41;28.40;43.60
35680;DHT22;21803;53.586;10.040;2023-06-22T11:07:06;28.40;43.60
35680;DHT22;21803;53.586;10.040;2023-06-22T11:09:32;28.30;43.50
35680;DHT22;21803;53.586;10.040;2023-06-22T11:11:58;28.40;43.60
35680;DHT22;21803;53.586;10.040;2023-06-22T11:14:24;28.40;43.70
35680;DHT22;21803;53.586;10.040;2023-06-22T11:16:50;28.30;43.60
35680;DHT22;21803;53.586;10.040;2023-06-22T11:19:16;28.40;43.70
35680;DHT22;21803;53.586;10.040;2023-06-22T11:21:41;28.40;43.80
35680;DHT22;21803;53.586;10.040;2023-06-22T11:24:07;28.40;43.80
35680;DHT22;21803;53.586;10.040;2023-06-22T11:26:33;28.30;43.70
35680;DHT22;21803;53.586;10.040;2023-06-22T11:28:58;28.30;43.80
35680;DHT22;21803;53.586;10.040;2023-06-22T11:31:24;28.40;43.90
35680;DHT22;21803;53.586;10.040;2023-06-22T11:33:50;28.30;43.80
35680;DHT22;21803;53.586;10.040;2023-06-22T11:36:16;28.30;43.80
35680;DHT22;21803;53.586;10.040;2023-06-22T11:38:43;28.40;43.90
35680;DHT22;21803;53.586;10.040;2023-06-22T11:41:09;28.30;43.90
35680;DHT22;21803;53.586;10.040;2023-06-22T11:43:35;28.30;43.90
35680;DHT22;21803;53.586;10.040;2023-06-22T11:46:03;28.40;44.00
35680;DHT22;21803;53.586;10.040;2023-06-22T11:48:28;28.30;43.90
35680;DHT22;21803;53.586;10.040;2023-06-22T11:50:54;28.40;44.00
35680;DHT22;21803;53.586;10.040;2023-06-22T11:53:24;28.30;43.90
35680;DHT22;21803;53.586;10.040;2023-06-22T11:55:50;28.40;44.00
35680;DHT22;21803;53.586;10.040;2023-06-22T11:58:16;28.40;44.00
35680;DHT22;21803;53.586;10.040;2023-06-22T12:00:41;28.40;44.00
35680;DHT22;21803;53.586;10.040;2023-06-22T12:03:07;28.40;44.00
35680;DHT22;21803;53.586;10.040;2023-06-22T12:05:33;28.40;44.00
35680;DHT22;21803;53.586;10.040;2023-06-22T12:07:58;28.30;43.90
35680;DHT22;21803;53.586;10.040;2023-06-22T12:10:25;28.40;44.00
35680;DHT22;21803;53.586;10.040;2023-06-22T12:12:51;28.40;44.00
35680;DHT22;21803;53.586;10.040;2023-06-22T12:15:17;28.40;44.00
35680;DHT22;21803;53.586;10.040;2023-06-22T12:17:42;28.40;44.00
35680;DHT22;21803;53.586;10.040;2023-06-22T12:20:08;28.40;44.00
35680;DHT22;21803;53.586;10.040;2023-06-22T12:22:34;28.40;44.00
35680;DHT22;21803;53.586;10.040;2023-06-22T12:25:00;28.40;44.00
35680;DHT22;21803;53.586;10.040;2023-06-22T12:27:26;28.40;44.00
35680;DHT22;21803;53.586;10.040;2023-06-22T12:29:52;28.40;44.00
35680;DHT22;21803;53.586;10.040;2023-06-22T12:32:18;28.40;44.00
35680;DHT22;21803;53.586;10.040;2023-06-22T12:34:44;28.40;44.00
35680;DHT22;21803;53.586;10.040;2023-06-22T12:37:10;28.40;44.00
35680;DHT22;21803;53.586;10.040;2023-06-22T12:39:36;28.30;43.90
35680;DHT22;21803;53.586;10.040;2023-06-22T12:42:02;28.40;44.00
35680;DHT22;21803;53.586;10.040;2023-06-22T12:44:27;28.40;44.00
35680;DHT22;21803;53.586;10.040;2023-06-22T12:46:53;28.40;44.00
35680;DHT22;21803;53.586;10.040;2023-06-22T12:49:18;28.40;44.00
35680;DHT22;21803;53.586;10.040;2023-06-22T12:51:44;28.40;44.60
35680;DHT22;21803;53.586;10.040;2023-06-22T12:54:11;28.40;44.00
35680;DHT22;21803;53.586;10.040;2023-06-22T12:56:37;28.40;44.00
35680;DHT22;21803;53.586;10.040;2023-06-22T12:59:04;28.40;44.00
35680;DHT22;21803;53.586;10.040;2023-06-22T13:01:30;28.40;44.00
35680;DHT22;21803;53.586;10.040;2023-06-22T13:03:57;28.40;44.00
35680;DHT22;21803;53.586;10.040;2023-06-22T13:06:23;28.30;43.90
35680;DHT22;21803;53.586;10.040;2023-06-22T13:08:49;28.40;44.00
35680;DHT22;21803;53.586;10.040;2023-06-22T13:11:14;28.40;44.00
35680;DHT22;21803;53.586;10.040;2023-06-22T13:13:40;28.40;44.00
35680;DHT22;21803;53.586;10.040;2023-06-22T13:16:06;28.40;44.00
35680;DHT22;21803;53.586;10.040;2023-06-22T13:18:31;28.40;44.00
35680;DHT22;21803;53.586;10.040;2023-06-22T13:20:58;28.40;44.00
35680;DHT22;21803;53.586;10.040;2023-06-22T13:23:25;28.40;44.00
35680;DHT22;21803;53.586;10.040;2023-06-22T13:25:51;28.40;44.00
35680;DHT22;21803;53.586;10.040;2023-06-22T13:28:16;28.40;44.00
35680;DHT22;21803;53.586;10.040;2023-06-22T13:30:42;28.40;44.00
35680;DHT22;21803;53.586;10.040;2023-06-22T13:33:10;28.40;44.00
35680;DHT22;21803;53.586;10.040;2023-06-22T13:35:36;28.40;44.00
35680;DHT22;21803;53.586;10.040;2023-06-22T13:38:03;28.40;44.00
35680;DHT22;21803;53.586;10.040;2023-06-22T13:40:28;28.40;44.00
35680;DHT22;21803;53.586;10.040;2023-06-22T13:42:54;28.40;44.00
35680;DHT22;21803;53.586;10.040;2023-06-22T13:45:19;28.40;44.00
35680;DHT22;21803;53.586;10.040;2023-06-22T13:47:45;28.40;44.00
35680;DHT22;21803;53.586;10.040;2023-06-22T13:50:11;28.40;44.00
35680;DHT22;21803;53.586;10.040;2023-06-22T13:52:38;28.40;44.00
35680;DHT22;21803;53.586;10.040;2023-06-22T13:55:04;28.40;44.00
35680;DHT22;21803;53.586;10.040;2023-06-22T13:57:30;28.40;44.00
35680;DHT22;21803;53.586;10.040;2023-06-22T13:59:55;28.40;44.00
35680;DHT22;21803;53.586;10.040;2023-06-22T14:02:21;28.40;44.00
35680;DHT22;21803;53.586;10.040;2023-06-22T14:04:46;28.40;44.00
35680;DHT22;21803;53.586;10.040;2023-06-22T14:07:12;28.30;43.90
35680;DHT22;21803;53.586;10.040;2023-06-22T14:09:37;28.40;44.00
35680;DHT22;21803;53.586;10.040;2023-06-22T14:12:06;28.40;44.00
35680;DHT22;21803;53.586;10.040;2023-06-22T14:14:33;28.40;44.00
35680;DHT22;21803;53.586;10.040;2023-06-22T14:16:59;28.40;44.00
35680;DHT22;21803;53.586;10.040;2023-06-22T14:19:25;28.40;44.00
35680;DHT22;21803;53.586;10.040;2023-06-22T14:21:50;28.40;44.00
35680;DHT22;21803;53.586;10.040;2023-06-22T14:24:16;28.40;44.00
35680;DHT22;21803;53.586;10.040;2023-06-22T14:26:41;28.40;44.10
35680;DHT22;21803;53.586;10.040;2023-06-22T14:29:07;28.40;44.10
35680;DHT22;21803;53.586;10.040;2023-06-22T14:31:32;28.40;44.10
35680;DHT22;21803;53.586;10.040;2023-06-22T14:33:58;28.40;44.10
35680;DHT22;21803;53.586;10.040;2023-06-22T14:36:23;28.40;44.10
35680;DHT22;21803;53.586;10.040;2023-06-22T14:38:49;28.40;44.10
35680;DHT22;21803;53.586;10.040;2023-06-22T14:41:15;28.40;44.10
35680;DHT22;21803;53.586;10.040;2023-06-22T14:43:44;28.40;44.20
35680;DHT22;21803;53.586;10.040;2023-06-22T14:46:11;28.40;44.20
35680;DHT22;21803;53.586;10.040;2023-06-22T14:48:36;28.40;44.20
35680;DHT22;21803;53.586;10.040;2023-06-22T14:51:02;28.40;44.20
35680;DHT22;21803;53.586;10.040;2023-06-22T14:53:27;28.40;44.20
35680;DHT22;21803;53.586;10.040;2023-06-22T14:55:53;28.30;44.20
35680;DHT22;21803;53.586;10.040;2023-06-22T14:58:20;28.40;44.30
35680;DHT22;21803;53.586;10.040;2023-06-22T15:00:45;28.40;44.30
35680;DHT22;21803;53.586;10.040;2023-06-22T15:03:11;28.30;44.20
35680;DHT22;21803;53.586;10.040;2023-06-22T15:05:42;28.40;44.30
35680;DHT22;21803;53.586;10.040;2023-06-22T15:08:08;28.40;44.30
35680;DHT22;21803;53.586;10.040;2023-06-22T15:10:34;28.30;44.30
35680;DHT22;21803;53.586;10.040;2023-06-22T15:12:59;28.40;44.30
35680;DHT22;21803;53.586;10.040;2023-06-22T15:15:25;28.50;44.40
35680;DHT22;21803;53.586;10.040;2023-06-22T15:17:50;28.30;44.30
35680;DHT22;21803;53.586;10.040;2023-06-22T15:20:16;28.50;44.50
35680;DHT22;21803;53.586;10.040;2023-06-22T15:22:41;28.40;45.10
35680;DHT22;21803;53.586;10.040;2023-06-22T15:25:07;28.30;44.40
35680;DHT22;21803;53.586;10.040;2023-06-22T15:27:32;28.40;44.50
35680;DHT22;21803;53.586;10.040;2023-06-22T15:29:58;28.40;44.50
35680;DHT22;21803;53.586;10.040;2023-06-22T15:32:24;28.40;44.50
35680;DHT22;21803;53.586;10.040;2023-06-22T15:34:50;28.40;44.50
35680;DHT22;21803;53.586;10.040;2023-06-22T15:37:19;28.40;44.60
35680;DHT22;21803;53.586;10.040;2023-06-22T15:39:44;28.40;44.60
35680;DHT22;21803;53.586;10.040;2023-06-22T15:42:10;28.30;44.50
35680;DHT22;21803;53.586;10.040;2023-06-22T15:44:35;28.40;44.60
35680;DHT22;21803;53.586;10.040;2023-06-22T15:47:01;28.40;44.60
35680;DHT22;21803;53.586;10.040;2023-06-22T15:49:26;28.30;44.60
35680;DHT22;21803;53.586;10.040;2023-06-22T15:51:52;28.30;44.60
35680;DHT22;21803;53.586;10.040;2023-06-22T15:54:18;28.40;44.60
35680;DHT22;21803;53.586;10.040;2023-06-22T15:56:43;28.40;44.70
35680;DHT22;21803;53.586;10.040;2023-06-22T15:59:09;28.40;44.70
35680;DHT22;21803;53.586;10.040;2023-06-22T16:01:35;28.30;44.60
35680;DHT22;21803;53.586;10.040;2023-06-22T16:04:01;28.30;44.70
35680;DHT22;21803;53.586;10.040;2023-06-22T16:06:28;28.40;44.70
35680;DHT22;21803;53.586;10.040;2023-06-22T16:08:54;28.40;44.80
35680;DHT22;21803;53.586;10.040;2023-06-22T16:11:19;28.40;44.80
35680;DHT22;21803;53.586;10.040;2023-06-22T16:13:45;28.40;44.80
35680;DHT22;21803;53.586;10.040;2023-06-22T16:16:11;28.20;44.70
35680;DHT22;21803;53.586;10.040;2023-06-22T16:18:37;28.30;44.70
35680;DHT22;21803;53.586;10.040;2023-06-22T16:21:03;28.30;44.80
35680;DHT22;21803;53.586;10.040;2023-06-22T16:23:30;28.30;44.70
35680;DHT22;21803;53.586;10.040;2023-06-22T16:25:55;28.30;45.40
35680;DHT22;21803;53.586;10.040;2023-06-22T16:28:21;28.40;44.80
35680;DHT22;21803;53.586;10.040;2023-06-22T16:30:47;28.30;44.70
35680;DHT22;21803;53.586;10.040;2023-06-22T16:33:13;28.30;44.70
35680;DHT22;21803;53.586;10.040;2023-06-22T16:35:38;28.30;44.70
35680;DHT22;21803;53.586;10.040;2023-06-22T16:38:06;28.40;44.80
35680;DHT22;21803;53.586;10.040;2023-06-22T16:40:32;28.40;44.70
35680;DHT22;21803;53.586;10.040;2023-06-22T16:42:57;28.40;44.70
35680;DHT22;21803;53.586;10.040;2023-06-22T16:45:23;28.40;44.70
35680;DHT22;21803;53.586;10.040;2023-06-22T16:47:50;28.40;44.60
35680;DHT22;21803;53.586;10.040;2023-06-22T16:50:16;28.30;44.60
35680;DHT22;21803;53.586;10.040;2023-06-22T16:52:42;28.40;44.70
35680;DHT22;21803;53.586;10.040;2023-06-22T16:55:14;28.40;44.60
35680;DHT22;21803;53.586;10.040;2023-06-22T16:57:41;28.40;44.60
35680;DHT22;21803;53.586;10.040;2023-06-22T17:00:07;28.40;44.60
35680;DHT22;21803;53.586;10.040;2023-06-22T17:02:42;28.40;44.60
35680;DHT22;21803;53.586;10.040;2023-06-22T17:05:09;28.40;44.50
35680;DHT22;21803;53.586;10.040;2023-06-22T17:07:36;28.40;44.50
35680;DHT22;21803;53.586;10.040;2023-06-22T17:10:02;28.40;44.50
35680;DHT22;21803;53.586;10.040;2023-06-22T17:12:28;28.40;44.50
35680;DHT22;21803;53.586;10.040;2023-06-22T17:14:55;28.40;44.50
35680;DHT22;21803;53.586;10.040;2023-06-22T17:17:22;28.40;44.50
35680;DHT22;21803;53.586;10.040;2023-06-22T17:19:51;28.40;44.50
35680;DHT22;21803;53.586;10.040;2023-06-22T17:22:17;28.40;44.50
35680;DHT22;21803;53.586;10.040;2023-06-22T17:24:43;28.40;44.40
35680;DHT22;21803;53.586;10.040;2023-06-22T17:27:09;28.40;44.40
35680;DHT22;21803;53.586;10.040;2023-06-22T17:29:34;28.40;44.40
35680;DHT22;21803;53.586;10.040;2023-06-22T17:32:02;28.40;44.40
35680;DHT22;21803;53.586;10.040;2023-06-22T17:34:29;28.40;44.40
35680;DHT22;21803;53.586;10.040;2023-06-22T17:36:56;28.40;44.40
35680;DHT22;21803;53.586;10.040;2023-06-22T17:39:23;28.40;44.40
35680;DHT22;21803;53.586;10.040;2023-06-22T17:41:49;28.40;44.40
35680;DHT22;21803;53.586;10.040;2023-06-22T17:44:25;28.40;44.40
35680;DHT22;21803;53.586;10.040;2023-06-22T17:46:55;28.40;44.40
35680;DHT22;21803;53.586;10.040;2023-06-22T17:49:22;28.50;44.40
35680;DHT22;21803;53.586;10.040;2023-06-22T17:51:50;28.40;44.30
35680;DHT22;21803;53.586;10.040;2023-06-22T17:54:17;28.40;44.30
35680;DHT22;21803;53.586;10.040;2023-06-22T17:56:50;28.40;44.30
35680;DHT22;21803;53.586;10.040;2023-06-22T17:59:19;28.40;44.30
35680;DHT22;21803;53.586;10.040;2023-06-22T18:01:45;28.40;44.30
35680;DHT22;21803;53.586;10.040;2023-06-22T18:04:12;28.40;44.30
35680;DHT22;21803;53.586;10.040;2023-06-22T18:06:39;28.40;44.30
35680;DHT22;21803;53.586;10.040;2023-06-22T18:09:06;28.40;44.20
35680;DHT22;21803;53.586;10.040;2023-06-22T18:11:34;28.40;44.20
35680;DHT22;21803;53.586;10.040;2023-06-22T18:14:01;28.40;44.20
35680;DHT22;21803;53.586;10.040;2023-06-22T18:16:29;28.40;44.10
35680;DHT22;21803;53.586;10.040;2023-06-22T18:18:57;28.40;44.10
35680;DHT22;21803;53.586;10.040;2023-06-22T18:21:24;28.40;44.10
35680;DHT22;21803;53.586;10.040;2023-06-22T18:23:50;28.40;44.10
35680;DHT22;21803;53.586;10.040;2023-06-22T18:26:21;28.40;44.00
35680;DHT22;21803;53.586;10.040;2023-06-22T18:28:50;28.40;43.90
35680;DHT22;21803;53.586;10.040;2023-06-22T18:31:16;28.40;43.90
35680;DHT22;21803;53.586;10.040;2023-06-22T18:33:43;28.30;43.80
35680;DHT22;21803;53.586;10.040;2023-06-22T18:36:09;28.40;43.80
35680;DHT22;21803;53.586;10.040;2023-06-22T18:38:36;28.40;43.80
35680;DHT22;21803;53.586;10.040;2023-06-22T18:41:05;28.40;43.70
35680;DHT22;21803;53.586;10.040;2023-06-22T18:43:37;28.40;43.70
35680;DHT22;21803;53.586;10.040;2023-06-22T18:46:43;28.40;43.60
35680;DHT22;21803;53.586;10.040;2023-06-22T18:49:12;28.40;43.50
35680;DHT22;21803;53.586;10.040;2023-06-22T18:52:03;28.40;43.50
35680;DHT22;21803;53.586;10.040;2023-06-22T18:59:42;28.40;43.30
35680;DHT22;21803;53.586;10.040;2023-06-22T19:02:12;28.40;43.30
35680;DHT22;21803;53.586;10.040;2023-06-22T19:04:39;28.40;43.30
35680;DHT22;21803;53.586;10.040;2023-06-22T19:07:06;28.40;43.20
35680;DHT22;21803;53.586;10.040;2023-06-22T19:09:33;28.40;43.20
35680;DHT22;21803;53.586;10.040;2023-06-22T19:12:31;28.40;43.10
35680;DHT22;21803;53.586;10.040;2023-06-22T19:15:11;28.40;43.00